Time;durP1;ratioP1;P1;durP2;ratioP2;P2;SDS_P1;SDS_P2;PMS_P1;PMS_P2;Temp;Humidity;BMP_temperature;BMP_pressure;BME280_temperature;BME280_humidity;BME280_pressure;Samples;Min_cycle;Max_cycle;Signal;HPM_P1;HPM_P2
2023/07/05 00:04:25;;;;;;;3.50;2.75;;;;;;;;;;13045176;22;20419;-84
2023/07/05 00:09:28;;;;;;;5.07;3.80;;;;;;;;;;13044525;22;20686;-83
2023/07/05 00:14:30;;;;;;;3.65;3.10;;;;;;;;;;13046874;22;20439;-83
2023/07/05 00:19:35;;;;;;;4.97;3.65;;;;;;;;;;13044976;22;20377;-84
2023/07/05 00:24:37;;;;;;;4.28;2.92;;;;;;;;;;13044859;22;20829;-84
2023/07/05 00:29:40;;;;;;;4.50;3.30;;;;;;;;;;13045286;22;20365;-83
2023/07/05 00:34:44;;;;;;;3.70;2.90;;;;;;;;;;13046239;22;20404;-83
2023/07/05 00:39:46;;;;;;;3.43;2.67;;;;;;;;;;13043500;22;20683;-83
2023/07/05 00:45:40;;;;;;;2.20;1.83;;;;;;;;;;13043484;22;20388;-83
2023/07/05 00:50:53;;;;;;;2.40;1.80;;;;;;;;;;13042978;22;20357;-84
2023/07/05 00:56:02;;;;;;;2.25;1.13;;;;;;;;;;13043232;22;20357;-83
2023/07/05 01:01:05;;;;;;;1.38;1.17;;;;;;;;;;13043846;22;20381;-84
2023/07/05 01:06:12;;;;;;;1.20;0.90;;;;;;;;;;13043261;22;20419;-84
2023/07/05 01:11:24;;;;;;;1.27;1.10;;;;;;;;;;13043434;22;20431;-83
2023/07/05 01:16:49;;;;;;;3.83;1.20;;;;;;;;;;13043414;22;20353;-83
2023/07/05 01:22:02;;;;;;;1.73;1.10;;;;;;;;;;13043752;22;20844;-83
2023/07/05 01:27:40;;;;;;;2.30;1.00;;;;;;;;;;13043008;22;20431;-83
2023/07/05 01:32:51;;;;;;;2.20;0.88;;;;;;;;;;13043461;22;20487;-83
2023/07/05 01:37:53;;;;;;;1.33;0.90;;;;;;;;;;13042591;22;20369;-83
2023/07/05 01:42:58;;;;;;;1.80;0.90;;;;;;;;;;13043486;22;20373;-83
2023/07/05 01:48:13;;;;;;;3.53;1.00;;;;;;;;;;13044372;22;20364;-83
2023/07/05 01:53:20;;;;;;;1.33;0.80;;;;;;;;;;13043185;22;20369;-83
2023/07/05 01:58:29;;;;;;;2.13;1.20;;;;;;;;;;13043456;22;20766;-83
2023/07/05 02:03:35;;;;;;;1.38;0.90;;;;;;;;;;13042640;22;20415;-83
2023/07/05 02:08:39;;;;;;;1.17;0.90;;;;;;;;;;13042331;22;20832;-83
2023/07/05 02:13:42;;;;;;;1.88;0.90;;;;;;;;;;13043622;22;20410;-83
2023/07/05 02:18:46;;;;;;;2.55;1.00;;;;;;;;;;13042032;22;20435;-83
2023/07/05 02:23:48;;;;;;;2.28;1.00;;;;;;;;;;13042360;22;20361;-82
2023/07/05 02:28:51;;;;;;;3.42;0.80;;;;;;;;;;13041675;22;20428;-83
2023/07/05 02:33:54;;;;;;;1.10;0.70;;;;;;;;;;13042406;22;20898;-83
2023/07/05 02:38:57;;;;;;;2.77;0.80;;;;;;;;;;13041545;22;20377;-83
2023/07/05 02:43:59;;;;;;;2.22;1.15;;;;;;;;;;13042970;22;20395;-83
2023/07/05 02:49:03;;;;;;;2.00;1.10;;;;;;;;;;13042116;22;20353;-83
2023/07/05 02:54:05;;;;;;;2.15;1.17;;;;;;;;;;13041178;22;20497;-82
2023/07/05 02:59:11;;;;;;;1.73;1.10;;;;;;;;;;13041809;22;20441;-83
2023/07/05 03:04:14;;;;;;;1.50;1.00;;;;;;;;;;13041864;22;20361;-83
2023/07/05 03:09:18;;;;;;;1.23;0.93;;;;;;;;;;13043294;22;20411;-83
2023/07/05 03:14:20;;;;;;;2.70;0.85;;;;;;;;;;13045253;22;20418;-82
2023/07/05 03:19:24;;;;;;;2.13;1.00;;;;;;;;;;13045608;22;20384;-83
2023/07/05 03:24:26;;;;;;;3.27;1.17;;;;;;;;;;13045688;22;20388;-83
2023/07/05 03:29:29;;;;;;;1.63;1.20;;;;;;;;;;13046317;22;20828;-83
2023/07/05 03:34:33;;;;;;;3.05;1.30;;;;;;;;;;13045665;22;20361;-83
2023/07/05 03:39:35;;;;;;;2.83;1.50;;;;;;;;;;13043850;22;20536;-83
2023/07/05 03:44:37;;;;;;;3.45;1.75;;;;;;;;;;13045389;22;20423;-82
2023/07/05 03:49:41;;;;;;;5.15;1.88;;;;;;;;;;13045969;22;20427;-83
2023/07/05 03:54:43;;;;;;;3.00;1.80;;;;;;;;;;13045093;22;20415;-82
2023/07/05 03:59:47;;;;;;;3.20;1.40;;;;;;;;;;13044631;22;20922;-82
2023/07/05 04:04:51;;;;;;;2.28;1.10;;;;;;;;;;13044244;22;20361;-83
2023/07/05 04:09:53;;;;;;;3.50;1.60;;;;;;;;;;13045203;22;20361;-82
2023/07/05 04:14:56;;;;;;;3.42;1.50;;;;;;;;;;13045144;22;20365;-82
2023/07/05 04:19:59;;;;;;;3.70;1.70;;;;;;;;;;13044360;22;20380;-83
2023/07/05 04:25:05;;;;;;;3.53;1.40;;;;;;;;;;13044009;22;20415;-82
2023/07/05 04:30:09;;;;;;;5.30;1.97;;;;;;;;;;13045216;22;20381;-82
2023/07/05 04:35:13;;;;;;;3.80;2.27;;;;;;;;;;13044103;22;20391;-83
2023/07/05 04:40:15;;;;;;;4.20;2.38;;;;;;;;;;13038981;22;20395;-83
2023/07/05 04:45:18;;;;;;;5.55;2.17;;;;;;;;;;13042794;22;20376;-83
2023/07/05 04:50:21;;;;;;;3.67;2.00;;;;;;;;;;13044477;22;20563;-83
2023/07/05 04:55:24;;;;;;;3.60;1.60;;;;;;;;;;13043512;22;20825;-82
2023/07/05 05:00:26;;;;;;;5.30;2.30;;;;;;;;;;13043060;22;20377;-83
2023/07/05 05:05:30;;;;;;;3.90;1.93;;;;;;;;;;13042703;22;20422;-83
2023/07/05 05:10:32;;;;;;;3.77;1.97;;;;;;;;;;13043612;22;20361;-83
2023/07/05 05:15:35;;;;;;;3.60;1.95;;;;;;;;;;13039696;22;20743;-83
2023/07/05 05:20:40;;;;;;;3.87;1.77;;;;;;;;;;13043672;22;20411;-83
2023/07/05 05:25:43;;;;;;;3.35;1.80;;;;;;;;;;13042524;22;20361;-82
2023/07/05 05:30:46;;;;;;;3.08;1.80;;;;;;;;;;13043525;22;20407;-83
2023/07/05 05:35:51;;;;;;;3.75;2.00;;;;;;;;;;13043656;22;20360;-82
2023/07/05 05:40:53;;;;;;;3.58;1.85;;;;;;;;;;13043073;22;20380;-82
2023/07/05 05:45:55;;;;;;;4.22;2.38;;;;;;;;;;13043451;22;20353;-83
2023/07/05 05:50:59;;;;;;;4.40;2.17;;;;;;;;;;13043011;22;20361;-82
2023/07/05 05:56:01;;;;;;;3.58;1.90;;;;;;;;;;13041699;22;20361;-83
2023/07/05 06:01:05;;;;;;;3.33;2.42;;;;;;;;;;13043350;22;20377;-82
2023/07/05 06:06:08;;;;;;;3.83;2.67;;;;;;;;;;13036967;22;20410;-82
2023/07/05 06:11:11;;;;;;;4.72;2.65;;;;;;;;;;13032957;22;20357;-83
2023/07/05 06:16:13;;;;;;;4.38;2.50;;;;;;;;;;13041492;22;20364;-83
2023/07/05 06:21:17;;;;;;;4.80;2.80;;;;;;;;;;13041000;22;20384;-82
2023/07/05 06:26:19;;;;;;;5.03;2.40;;;;;;;;;;13040737;22;20609;-83
2023/07/05 06:31:21;;;;;;;5.20;2.60;;;;;;;;;;13025443;22;20391;-82
2023/07/05 06:36:25;;;;;;;4.50;2.30;;;;;;;;;;12786438;22;20526;-82
2023/07/05 06:41:27;;;;;;;3.50;1.80;;;;;;;;;;12789154;22;20471;-80
2023/07/05 06:46:31;;;;;;;2.97;1.70;;;;;;;;;;12791105;22;20574;-81
2023/07/05 06:51:35;;;;;;;3.78;1.67;;;;;;;;;;12795501;22;20436;-82
2023/07/05 06:56:37;;;;;;;3.53;1.45;;;;;;;;;;12791559;22;20498;-82
2023/07/05 07:01:40;;;;;;;1.90;1.23;;;;;;;;;;12791092;22;20484;-81
2023/07/05 07:06:44;;;;;;;2.20;1.13;;;;;;;;;;12791611;22;20604;-81
2023/07/05 07:11:46;;;;;;;1.40;1.00;;;;;;;;;;12789717;22;20875;-81
2023/07/05 07:16:48;;;;;;;1.63;0.90;;;;;;;;;;12789659;22;20447;-82
2023/07/05 07:21:52;;;;;;;2.03;1.23;;;;;;;;;;12791859;22;20522;-82
2023/07/05 07:26:55;;;;;;;2.43;1.13;;;;;;;;;;12795115;22;20420;-82
2023/07/05 07:31:58;;;;;;;2.03;1.33;;;;;;;;;;12808580;22;20479;-81
2023/07/05 07:37:02;;;;;;;2.40;1.33;;;;;;;;;;12820737;22;21574;-81
2023/07/05 07:42:05;;;;;;;3.65;1.20;;;;;;;;;;12822446;22;21090;-81
2023/07/05 07:47:07;;;;;;;2.65;1.20;;;;;;;;;;12822093;22;20389;-82
2023/07/05 07:52:13;;;;;;;2.35;1.30;;;;;;;;;;12823812;22;20389;-82
2023/07/05 07:57:16;;;;;;;1.95;1.08;;;;;;;;;;12858516;22;20868;-81
2023/07/05 08:02:18;;;;;;;2.58;1.20;;;;;;;;;;13040840;22;20447;-81
2023/07/05 08:07:22;;;;;;;1.75;1.40;;;;;;;;;;13045401;22;20678;-79
2023/07/05 08:12:24;;;;;;;2.28;1.50;;;;;;;;;;13042100;22;20427;-81
2023/07/05 08:17:28;;;;;;;2.35;1.40;;;;;;;;;;13044339;22;20364;-81
2023/07/05 08:22:32;;;;;;;2.57;1.20;;;;;;;;;;13040868;22;20956;-81
2023/07/05 08:27:34;;;;;;;2.13;1.13;;;;;;;;;;13041984;22;20570;-82
2023/07/05 08:32:37;;;;;;;2.70;1.42;;;;;;;;;;13043539;22;20415;-79
2023/07/05 08:37:47;;;;;;;2.75;1.50;;;;;;;;;;12887039;22;20478;-83
2023/07/05 08:42:59;;;;;;;3.28;1.27;;;;;;;;;;12792131;22;21330;-82
2023/07/05 08:48:04;;;;;;;1.45;1.05;;;;;;;;;;12792761;22;21156;-82
2023/07/05 08:53:14;;;;;;;2.47;1.20;;;;;;;;;;12787642;22;20527;-82
2023/07/05 08:58:22;;;;;;;1.53;1.17;;;;;;;;;;12789626;22;20468;-82
2023/07/05 09:03:28;;;;;;;2.35;1.10;;;;;;;;;;12794065;22;20883;-81
2023/07/05 09:08:42;;;;;;;1.60;1.27;;;;;;;;;;12789648;22;21547;-83
2023/07/05 09:13:46;;;;;;;2.07;1.17;;;;;;;;;;12793281;22;20905;-81
2023/07/05 09:19:01;;;;;;;1.55;1.20;;;;;;;;;;12795123;22;20487;-83
2023/07/05 09:24:16;;;;;;;1.70;1.30;;;;;;;;;;12790844;22;21230;-84
2023/07/05 09:29:30;;;;;;;1.48;0.95;;;;;;;;;;12787053;22;20896;-83
2023/07/05 09:34:38;;;;;;;2.25;1.25;;;;;;;;;;12803735;22;20475;-82
2023/07/05 09:39:52;;;;;;;1.38;1.00;;;;;;;;;;12819378;22;20514;-84
2023/07/05 09:44:54;;;;;;;3.03;1.15;;;;;;;;;;12816613;22;20534;-82
2023/07/05 09:49:56;;;;;;;2.65;1.33;;;;;;;;;;12811709;22;20459;-82
2023/07/05 09:55:03;;;;;;;2.20;1.20;;;;;;;;;;12819510;22;20462;-80
2023/07/05 10:00:21;;;;;;;2.03;1.17;;;;;;;;;;12820685;22;20825;-82
2023/07/05 10:05:29;;;;;;;1.37;1.00;;;;;;;;;;12817035;22;20983;-83
2023/07/05 10:10:40;;;;;;;2.88;1.20;;;;;;;;;;12817777;22;20819;-83
2023/07/05 10:15:43;;;;;;;1.75;1.10;;;;;;;;;;12818934;22;20388;-82
2023/07/05 10:20:47;;;;;;;1.13;0.90;;;;;;;;;;12810816;22;20495;-82
2023/07/05 10:25:53;;;;;;;1.88;1.20;;;;;;;;;;12808490;22;20467;-82
2023/07/05 10:30:56;;;;;;;2.00;1.00;;;;;;;;;;12815016;22;20486;-82
2023/07/05 10:36:03;;;;;;;1.77;1.05;;;;;;;;;;12812108;22;21159;-82
2023/07/05 10:41:17;;;;;;;1.03;0.90;;;;;;;;;;12805205;22;20654;-82
2023/07/05 10:46:24;;;;;;;1.55;1.00;;;;;;;;;;12811518;22;20438;-83
2023/07/05 10:51:30;;;;;;;1.65;0.88;;;;;;;;;;12811810;22;21598;-81
2023/07/05 10:56:36;;;;;;;2.35;1.13;;;;;;;;;;12809086;22;21098;-82
2023/07/05 11:01:46;;;;;;;2.07;1.20;;;;;;;;;;12807839;22;20463;-83
2023/07/05 11:06:50;;;;;;;2.20;1.20;;;;;;;;;;12812070;22;21437;-82
2023/07/05 11:11:58;;;;;;;1.50;1.10;;;;;;;;;;12818152;22;20928;-82
2023/07/05 11:17:01;;;;;;;1.90;1.17;;;;;;;;;;12808176;22;20463;-82
2023/07/05 11:22:04;;;;;;;2.60;1.30;;;;;;;;;;12809793;22;20519;-82
2023/07/05 11:27:49;;;;;;;1.80;1.20;;;;;;;;;;12806451;22;20483;-82
2023/07/05 11:33:16;;;;;;;2.20;1.27;;;;;;;;;;12812814;22;20753;-82
2023/07/05 11:39:07;;;;;;;2.17;1.10;;;;;;;;;;12811653;22;20403;-82
2023/07/05 11:44:32;;;;;;;1.87;1.43;;;;;;;;;;12748791;22;20501;-82
2023/07/05 11:49:37;;;;;;;1.95;1.30;;;;;;;;;;12749202;22;20915;-82
2023/07/05 11:54:48;;;;;;;3.35;1.80;;;;;;;;;;12753242;22;20448;-82
2023/07/05 12:00:03;;;;;;;2.45;1.40;;;;;;;;;;12754763;22;20447;-81
2023/07/05 12:05:11;;;;;;;2.45;1.60;;;;;;;;;;12755003;22;20477;-82
2023/07/05 12:10:20;;;;;;;1.88;1.48;;;;;;;;;;12730975;22;21006;-81
2023/07/05 12:15:24;;;;;;;2.13;1.40;;;;;;;;;;12758157;22;20394;-81
2023/07/05 12:20:31;;;;;;;1.80;1.30;;;;;;;;;;12762221;22;20833;-82
2023/07/05 12:25:33;;;;;;;1.33;1.20;;;;;;;;;;12755004;22;20424;-82
2023/07/05 12:30:40;;;;;;;1.60;1.20;;;;;;;;;;12753407;22;20814;-80
2023/07/05 12:35:43;;;;;;;1.92;1.15;;;;;;;;;;12757580;22;20398;-81
2023/07/05 12:40:50;;;;;;;2.03;1.20;;;;;;;;;;12781965;22;20795;-82
2023/07/05 12:45:54;;;;;;;4.03;1.30;;;;;;;;;;12816160;22;20919;-82
2023/07/05 12:51:03;;;;;;;2.67;1.73;;;;;;;;;;12817158;22;21531;-82
2023/07/05 12:56:09;;;;;;;2.28;1.30;;;;;;;;;;12823894;22;20849;-81
2023/07/05 13:01:13;;;;;;;3.60;2.00;;;;;;;;;;12826638;22;20467;-82
2023/07/05 13:06:17;;;;;;;2.03;1.80;;;;;;;;;;12822008;22;20397;-82
2023/07/05 13:11:26;;;;;;;2.40;1.50;;;;;;;;;;12824333;22;20513;-82
2023/07/05 13:16:31;;;;;;;2.87;1.40;;;;;;;;;;12817740;22;20396;-82
2023/07/05 13:21:39;;;;;;;2.55;1.23;;;;;;;;;;12822431;22;20485;-82
2023/07/05 13:26:42;;;;;;;2.65;1.60;;;;;;;;;;12825395;22;21143;-82
2023/07/05 13:31:48;;;;;;;2.63;1.30;;;;;;;;;;12818659;22;21862;-81
2023/07/05 13:36:52;;;;;;;4.03;1.50;;;;;;;;;;12822525;22;20392;-82
2023/07/05 13:41:58;;;;;;;1.20;1.10;;;;;;;;;;12818934;22;21636;-82
2023/07/05 13:47:01;;;;;;;2.73;1.23;;;;;;;;;;12818591;22;21310;-83
2023/07/05 13:52:04;;;;;;;2.75;1.75;;;;;;;;;;12821075;22;20864;-83
2023/07/05 13:57:13;;;;;;;4.03;1.50;;;;;;;;;;12818971;22;20470;-82
2023/07/05 14:02:28;;;;;;;1.95;1.50;;;;;;;;;;12815363;22;21022;-82
2023/07/05 14:07:31;;;;;;;1.38;1.20;;;;;;;;;;12823646;22;20400;-82
2023/07/05 14:12:33;;;;;;;1.60;1.20;;;;;;;;;;12820844;22;20773;-82
2023/07/05 14:17:37;;;;;;;2.37;1.30;;;;;;;;;;12817250;22;20396;-83
2023/07/05 14:22:40;;;;;;;2.45;1.27;;;;;;;;;;12825657;22;20424;-83
2023/07/05 14:27:42;;;;;;;3.72;1.30;;;;;;;;;;12819510;22;21133;-82
2023/07/05 14:32:46;;;;;;;2.53;1.40;;;;;;;;;;12973712;22;20369;-81
2023/07/05 14:37:49;;;;;;;3.78;1.50;;;;;;;;;;13035184;22;20435;-83
2023/07/05 14:42:52;;;;;;;2.60;1.40;;;;;;;;;;13037766;22;20442;-81
2023/07/05 14:47:57;;;;;;;2.33;1.40;;;;;;;;;;13039640;22;20368;-83
2023/07/05 14:53:02;;;;;;;1.77;1.40;;;;;;;;;;13036988;22;20450;-83
2023/07/05 14:58:04;;;;;;;2.60;1.42;;;;;;;;;;13037931;22;20372;-84
2023/07/05 15:03:10;;;;;;;1.80;1.40;;;;;;;;;;13010791;22;20385;-84
2023/07/05 15:08:12;;;;;;;1.40;1.30;;;;;;;;;;13042116;22;20504;-84
2023/07/05 15:13:14;;;;;;;2.20;1.52;;;;;;;;;;13043116;22;20394;-84
2023/07/05 15:18:18;;;;;;;1.42;1.30;;;;;;;;;;13038249;22;20900;-84
2023/07/05 15:23:20;;;;;;;3.40;1.57;;;;;;;;;;13042031;22;20438;-84
2023/07/05 15:28:23;;;;;;;2.70;1.63;;;;;;;;;;13041016;22;20365;-88
2023/07/05 15:33:26;;;;;;;1.50;1.30;;;;;;;;;;13042661;22;20434;-84
2023/07/05 15:38:29;;;;;;;2.35;1.65;;;;;;;;;;13040976;22;20368;-85
2023/07/05 15:43:33;;;;;;;2.03;1.47;;;;;;;;;;13035675;22;20411;-85
2023/07/05 15:48:38;;;;;;;3.33;1.70;;;;;;;;;;13023149;22;20368;-84
2023/07/05 15:53:40;;;;;;;3.10;1.70;;;;;;;;;;13032382;22;20365;-85
2023/07/05 15:58:46;;;;;;;1.92;1.42;;;;;;;;;;13028193;22;20368;-85
2023/07/05 16:03:50;;;;;;;2.30;1.50;;;;;;;;;;13024350;22;20462;-83
2023/07/05 16:08:52;;;;;;;2.95;1.73;;;;;;;;;;13028750;22;20368;-84
2023/07/05 16:13:54;;;;;;;3.63;1.90;;;;;;;;;;13031865;22;20372;-85
2023/07/05 16:18:58;;;;;;;2.65;1.55;;;;;;;;;;13032350;22;20885;-82
2023/07/05 16:24:01;;;;;;;2.50;1.53;;;;;;;;;;13030161;22;20389;-84
2023/07/05 16:29:03;;;;;;;2.93;2.10;;;;;;;;;;13029215;22;20377;-85
2023/07/05 16:34:07;;;;;;;2.13;1.47;;;;;;;;;;13030622;22;20446;-85
2023/07/05 16:39:09;;;;;;;3.08;1.73;;;;;;;;;;13030912;22;20377;-84
2023/07/05 16:44:12;;;;;;;2.42;1.80;;;;;;;;;;13032289;22;20755;-84
2023/07/05 16:49:15;;;;;;;2.95;1.90;;;;;;;;;;13034365;22;20365;-85
2023/07/05 16:54:18;;;;;;;2.47;1.57;;;;;;;;;;13033502;22;20365;-78
2023/07/05 16:59:20;;;;;;;2.07;1.80;;;;;;;;;;13031923;22;20427;-82
2023/07/05 17:04:24;;;;;;;2.15;1.70;;;;;;;;;;13026728;22;20933;-77
2023/07/05 17:09:26;;;;;;;2.30;1.70;;;;;;;;;;13026194;22;20725;-81
2023/07/05 17:14:29;;;;;;;2.80;1.60;;;;;;;;;;13027948;22;20381;-83
2023/07/05 17:19:32;;;;;;;3.10;2.77;;;;;;;;;;13028882;22;20919;-82
2023/07/05 17:24:35;;;;;;;6.13;3.50;;;;;;;;;;13027629;22;20415;-80
2023/07/05 17:29:37;;;;;;;5.75;3.22;;;;;;;;;;13028019;22;20757;-80
2023/07/05 17:34:41;;;;;;;5.43;2.85;;;;;;;;;;13029951;22;20434;-80
2023/07/05 17:39:44;;;;;;;3.28;2.20;;;;;;;;;;13028684;22;20400;-80
2023/07/05 17:44:46;;;;;;;4.88;4.00;;;;;;;;;;13027425;22;20710;-81
2023/07/05 17:49:50;;;;;;;51.35;42.83;;;;;;;;;;13028859;22;20912;-80
2023/07/05 17:54:52;;;;;;;21.35;16.95;;;;;;;;;;13027569;22;20398;-82
2023/07/05 17:59:54;;;;;;;2.13;1.77;;;;;;;;;;13027140;22;20381;-81
2023/07/05 18:04:58;;;;;;;2.95;1.60;;;;;;;;;;13024787;22;20388;-82
2023/07/05 18:10:01;;;;;;;25.30;18.08;;;;;;;;;;13024779;22;20369;-82
2023/07/05 18:15:04;;;;;;;31.33;19.77;;;;;;;;;;13024478;22;20793;-80
2023/07/05 18:20:09;;;;;;;11.05;7.38;;;;;;;;;;13027143;22;20369;-81
2023/07/05 18:25:11;;;;;;;20.73;15.23;;;;;;;;;;13025918;22;20427;-80
2023/07/05 18:30:15;;;;;;;24.88;16.92;;;;;;;;;;13026771;22;20372;-80
2023/07/05 18:35:18;;;;;;;6.35;4.50;;;;;;;;;;13026980;22;20377;-80
2023/07/05 18:40:21;;;;;;;2.93;1.70;;;;;;;;;;13025819;22;20399;-80
2023/07/05 18:45:23;;;;;;;1.77;1.20;;;;;;;;;;13026884;22;20797;-81
2023/07/05 18:50:30;;;;;;;2.10;1.10;;;;;;;;;;13027984;22;20414;-80
2023/07/05 18:55:33;;;;;;;3.30;1.40;;;;;;;;;;13026725;22;21005;-80
2023/07/05 19:00:36;;;;;;;3.20;1.52;;;;;;;;;;13027375;22;20372;-81
2023/07/05 19:05:40;;;;;;;3.35;1.80;;;;;;;;;;13024445;22;20714;-80
2023/07/05 19:10:42;;;;;;;2.65;1.50;;;;;;;;;;13024248;22;20426;-80
2023/07/05 19:15:45;;;;;;;2.17;1.50;;;;;;;;;;13026022;22;20407;-79
2023/07/05 19:20:49;;;;;;;2.05;1.30;;;;;;;;;;13025935;22;20369;-80
2023/07/05 19:25:55;;;;;;;1.40;1.20;;;;;;;;;;13024798;22;20385;-80
2023/07/05 19:31:07;;;;;;;3.83;1.60;;;;;;;;;;13001261;22;21089;-80
2023/07/05 19:36:11;;;;;;;3.40;1.40;;;;;;;;;;13028451;22;20838;-80
2023/07/05 19:41:14;;;;;;;2.47;1.88;;;;;;;;;;13027485;22;20450;-81
2023/07/05 19:46:22;;;;;;;4.05;1.58;;;;;;;;;;13028524;22;20446;-81
2023/07/05 19:51:26;;;;;;;3.65;1.80;;;;;;;;;;13028091;22;20353;-81
2023/07/05 19:56:29;;;;;;;2.70;1.70;;;;;;;;;;13029289;22;20392;-81
2023/07/05 20:01:31;;;;;;;3.92;2.13;;;;;;;;;;13030404;22;20377;-80
2023/07/05 20:06:35;;;;;;;2.85;2.00;;;;;;;;;;13025128;22;20384;-81
2023/07/05 20:11:37;;;;;;;3.73;2.20;;;;;;;;;;13030161;22;20430;-80
2023/07/05 20:16:39;;;;;;;5.10;2.60;;;;;;;;;;13030801;22;20377;-80
2023/07/05 20:21:43;;;;;;;2.53;2.00;;;;;;;;;;13031325;22;20833;-80
2023/07/05 20:26:46;;;;;;;2.95;1.95;;;;;;;;;;13030940;22;20687;-80
2023/07/05 20:31:48;;;;;;;3.70;2.00;;;;;;;;;;13031163;22;20422;-81
2023/07/05 20:36:52;;;;;;;3.50;1.83;;;;;;;;;;13031210;22;20372;-81
2023/07/05 20:41:54;;;;;;;3.45;2.17;;;;;;;;;;12939535;22;2118132;-80
2023/07/05 20:46:57;;;;;;;2.88;1.88;;;;;;;;;;13031159;22;20380;-81
2023/07/05 20:52:00;;;;;;;3.25;2.03;;;;;;;;;;13033948;22;20365;-81
2023/07/05 20:57:03;;;;;;;4.50;2.10;;;;;;;;;;13032935;22;20365;-81
2023/07/05 21:02:08;;;;;;;4.68;2.28;;;;;;;;;;13032574;22;20706;-80
2023/07/05 21:07:12;;;;;;;4.38;3.33;;;;;;;;;;13033659;22;20407;-80
2023/07/05 21:12:14;;;;;;;5.33;3.97;;;;;;;;;;13032527;22;20478;-81
2023/07/05 21:17:16;;;;;;;4.73;3.53;;;;;;;;;;13030732;22;20381;-80
2023/07/05 21:22:20;;;;;;;4.50;3.57;;;;;;;;;;13033997;22;20918;-81
2023/07/05 21:27:22;;;;;;;4.90;2.88;;;;;;;;;;13039139;22;20377;-81
2023/07/05 21:32:25;;;;;;;3.60;2.40;;;;;;;;;;13037580;22;20361;-81
2023/07/05 21:37:28;;;;;;;4.60;2.43;;;;;;;;;;13040646;22;20360;-82
2023/07/05 21:42:30;;;;;;;2.70;2.42;;;;;;;;;;13041864;22;20458;-81
2023/07/05 21:47:33;;;;;;;3.53;2.70;;;;;;;;;;13041322;22;20457;-81
2023/07/05 21:52:36;;;;;;;3.47;2.50;;;;;;;;;;13040767;22;20362;-81
2023/07/05 21:57:39;;;;;;;4.78;2.55;;;;;;;;;;13040758;22;20423;-81
2023/07/05 22:02:41;;;;;;;4.03;2.70;;;;;;;;;;13042313;22;20446;-81
2023/07/05 22:07:48;;;;;;;3.77;2.90;;;;;;;;;;13037731;22;20381;-83
2023/07/05 22:12:52;;;;;;;3.23;2.20;;;;;;;;;;13040716;22;20916;-82
2023/07/05 22:17:55;;;;;;;3.08;2.55;;;;;;;;;;13040997;22;20365;-83
2023/07/05 22:22:59;;;;;;;5.43;2.88;;;;;;;;;;13040717;22;20840;-82
2023/07/05 22:28:02;;;;;;;4.10;2.70;;;;;;;;;;13040284;22;20373;-82
2023/07/05 22:33:04;;;;;;;5.53;2.80;;;;;;;;;;13040393;22;20357;-82
2023/07/05 22:38:08;;;;;;;4.68;2.55;;;;;;;;;;13041066;22;21115;-82
2023/07/05 22:43:11;;;;;;;3.17;2.67;;;;;;;;;;13037566;22;20430;-82
2023/07/05 22:48:13;;;;;;;4.73;2.63;;;;;;;;;;13041733;22;20380;-81
2023/07/05 22:53:16;;;;;;;4.77;2.30;;;;;;;;;;13042106;22;20841;-81
2023/07/05 22:58:19;;;;;;;3.05;2.20;;;;;;;;;;13041332;22;20365;-82
2023/07/05 23:03:22;;;;;;;4.07;1.52;;;;;;;;;;13041307;22;20682;-82
2023/07/05 23:08:25;;;;;;;1.70;1.27;;;;;;;;;;13041817;22;20419;-81
2023/07/05 23:13:28;;;;;;;2.97;1.38;;;;;;;;;;13042132;22;20361;-81
2023/07/05 23:18:30;;;;;;;1.10;1.00;;;;;;;;;;13041846;22;20949;-82
2023/07/05 23:23:34;;;;;;;1.75;1.10;;;;;;;;;;13041833;22;20403;-81
2023/07/05 23:28:36;;;;;;;2.00;1.00;;;;;;;;;;13046515;22;20353;-82
2023/07/05 23:33:39;;;;;;;3.17;1.00;;;;;;;;;;13045782;22;20395;-82
2023/07/05 23:38:44;;;;;;;3.42;1.40;;;;;;;;;;13045560;22;20364;-82
2023/07/05 23:43:48;;;;;;;5.68;1.80;;;;;;;;;;13041080;22;20407;-87
2023/07/05 23:48:52;;;;;;;4.50;1.70;;;;;;;;;;13046114;22;20386;-86
2023/07/05 23:53:58;;;;;;;2.08;1.67;;;;;;;;;;13048774;22;20365;-88
2023/07/05 23:59:01;;;;;;;2.53;1.77;;;;;;;;;;13044990;22;20407;-87
